Time;durP1;ratioP1;P1;durP2;ratioP2;P2;SDS_P1;SDS_P2;PMS_P1;PMS_P2;Temp;Humidity;BMP_temperature;BMP_pressure;BME280_temperature;BME280_humidity;BME280_pressure;Samples;Min_cycle;Max_cycle;Signal;HPM_P1;HPM_P2
2022/01/25 00:31:16;;;;;;;;;;;1.30;99.90;;;;;;5094254;28;19961;-46
2022/01/25 00:33:51;;;;;;;;;;;1.30;99.90;;;;;;5094194;28;19919;-44
2022/01/25 00:36:18;;;;;;;;;;;1.20;99.90;;;;;;5093812;28;20422;-46
2022/01/25 00:38:44;;;;;;;;;;;1.20;99.90;;;;;;5094007;28;19909;-46
2022/01/25 00:41:09;;;;;;;;;;;1.50;99.90;;;;;;5096041;28;19909;-47
2022/01/25 00:43:35;;;;;;;;;;;1.70;99.90;;;;;;5098349;28;19915;-46
2022/01/25 00:46:05;;;;;;;;;;;1.80;99.90;;;;;;5097879;28;19916;-45
2022/01/25 00:53:56;;;;;;;;;;;1.80;99.90;;;;;;5098111;28;20004;-48
2022/01/25 00:56:23;;;;;;;;;;;1.80;99.90;;;;;;5097801;28;20327;-46
2022/01/25 00:58:49;;;;;;;;;;;1.70;99.90;;;;;;5097957;28;19908;-50
2022/01/25 01:01:16;;;;;;;;;;;1.80;99.90;;;;;;5098057;28;20342;-44
2022/01/25 01:03:41;;;;;;;;;;;1.90;99.90;;;;;;5097895;28;19908;-46
2022/01/25 01:06:07;;;;;;;;;;;1.80;99.90;;;;;;5097799;28;19941;-45
2022/01/25 01:08:33;;;;;;;;;;;1.60;99.90;;;;;;5097556;28;19912;-45
2022/01/25 01:11:01;;;;;;;;;;;1.60;99.90;;;;;;5097842;28;19908;-46
2022/01/25 01:48:02;;;;;;;;;;;1.50;99.90;;;;;;5097129;28;19915;-48
2022/01/25 01:50:31;;;;;;;;;;;1.50;99.90;;;;;;5097455;28;19914;-47
2022/01/25 01:52:57;;;;;;;;;;;1.70;99.90;;;;;;5096281;28;19908;-47
2022/01/25 01:55:24;;;;;;;;;;;1.70;99.90;;;;;;5097047;28;19915;-48
2022/01/25 01:57:50;;;;;;;;;;;1.70;99.90;;;;;;5096832;28;19954;-46
2022/01/25 02:00:17;;;;;;;;;;;1.70;99.90;;;;;;5096804;28;20261;-44
2022/01/25 02:02:43;;;;;;;;;;;1.80;99.90;;;;;;5096640;28;19936;-44
2022/01/25 02:05:09;;;;;;;;;;;1.60;99.90;;;;;;5096846;28;19962;-44
2022/01/25 02:07:35;;;;;;;;;;;1.60;99.90;;;;;;5097024;28;19951;-45
2022/01/25 02:10:00;;;;;;;;;;;1.80;99.90;;;;;;5096381;28;19908;-46
2022/01/25 02:12:26;;;;;;;;;;;1.60;99.90;;;;;;5096555;28;19908;-49
2022/01/25 02:14:53;;;;;;;;;;;1.30;99.90;;;;;;5096198;28;19919;-46
2022/01/25 02:22:59;;;;;;;;;;;0.90;99.90;;;;;;5096188;28;19918;-44
2022/01/25 02:25:24;;;;;;;;;;;1.10;99.90;;;;;;5095886;28;19920;-44
2022/01/25 02:27:50;;;;;;;;;;;1.30;99.90;;;;;;5096646;28;20299;-44
2022/01/25 02:30:16;;;;;;;;;;;1.40;99.90;;;;;;5096636;28;20003;-46
2022/01/25 02:32:41;;;;;;;;;;;1.20;99.90;;;;;;5096270;28;19962;-44
2022/01/25 02:35:07;;;;;;;;;;;0.80;99.90;;;;;;5096493;28;20036;-44
2022/01/25 02:37:33;;;;;;;;;;;1.00;99.90;;;;;;5096112;28;19959;-47
2022/01/25 02:39:59;;;;;;;;;;;1.10;99.90;;;;;;5096033;28;20270;-45
2022/01/25 02:42:25;;;;;;;;;;;1.10;99.90;;;;;;5096024;28;20251;-44
2022/01/25 02:44:50;;;;;;;;;;;1.00;99.90;;;;;;5095825;28;19923;-47
2022/01/25 02:50:00;;;;;;;;;;;1.30;99.90;;;;;;5095921;28;20049;-46
2022/01/25 02:52:27;;;;;;;;;;;1.40;99.90;;;;;;5096182;28;19958;-46
2022/01/25 02:54:53;;;;;;;;;;;1.40;99.90;;;;;;5095825;28;19954;-48
2022/01/25 02:57:19;;;;;;;;;;;1.50;99.90;;;;;;5095498;28;20324;-48
2022/01/25 02:59:45;;;;;;;;;;;1.60;99.90;;;;;;5095740;28;19908;-49
2022/01/25 03:02:10;;;;;;;;;;;1.70;99.90;;;;;;5095309;28;20270;-45
2022/01/25 03:04:36;;;;;;;;;;;1.60;99.90;;;;;;5094033;28;19916;-44
2022/01/25 03:07:01;;;;;;;;;;;1.60;99.90;;;;;;5095595;28;19973;-44
2022/01/25 03:09:27;;;;;;;;;;;1.60;99.90;;;;;;5077374;28;19961;-46
2022/01/25 03:11:54;;;;;;;;;;;1.60;99.90;;;;;;5095435;28;20305;-49
2022/01/25 03:14:22;;;;;;;;;;;1.30;99.90;;;;;;5095138;28;20385;-48
2022/01/25 03:22:07;;;;;;;;;;;1.30;99.90;;;;;;5095280;28;19969;-45
2022/01/25 03:24:32;;;;;;;;;;;1.40;99.90;;;;;;5095172;28;19975;-45
2022/01/25 03:26:58;;;;;;;;;;;1.50;99.90;;;;;;5095079;28;19931;-45
2022/01/25 03:29:23;;;;;;;;;;;1.50;99.90;;;;;;5095037;28;19908;-44
2022/01/25 03:31:49;;;;;;;;;;;1.50;99.90;;;;;;5095147;28;19908;-44
2022/01/25 03:34:14;;;;;;;;;;;1.50;99.90;;;;;;5095028;28;19908;-45
2022/01/25 03:36:41;;;;;;;;;;;1.60;99.90;;;;;;5094725;28;19994;-46
2022/01/25 03:39:07;;;;;;;;;;;1.60;99.90;;;;;;5095263;28;19999;-43
2022/01/25 03:41:33;;;;;;;;;;;1.70;99.90;;;;;;5094838;28;20002;-45
2022/01/25 03:43:58;;;;;;;;;;;1.80;99.90;;;;;;5094488;28;19951;-47
2022/01/25 03:46:34;;;;;;;;;;;1.70;99.90;;;;;;5094492;28;19908;-48
2022/01/25 03:51:44;;;;;;;;;;;1.70;99.90;;;;;;5094801;28;19993;-47
2022/01/25 03:54:09;;;;;;;;;;;1.80;99.90;;;;;;5094357;28;19947;-50
2022/01/25 03:56:35;;;;;;;;;;;1.80;99.90;;;;;;5094555;28;19912;-44
2022/01/25 03:59:01;;;;;;;;;;;1.80;99.90;;;;;;5094502;28;19915;-45
2022/01/25 04:01:26;;;;;;;;;;;1.80;99.90;;;;;;5094574;28;19908;-45
2022/01/25 04:03:59;;;;;;;;;;;1.80;99.90;;;;;;5094525;28;19912;-45
2022/01/25 04:06:26;;;;;;;;;;;1.70;99.90;;;;;;5094569;28;19916;-47
2022/01/25 04:08:51;;;;;;;;;;;1.80;99.90;;;;;;5094413;28;19908;-44
2022/01/25 04:11:17;;;;;;;;;;;1.80;99.90;;;;;;5076268;28;19966;-45
2022/01/25 04:13:42;;;;;;;;;;;1.70;99.90;;;;;;5094025;28;19968;-45
2022/01/25 04:16:14;;;;;;;;;;;1.70;99.90;;;;;;5093921;28;19915;-45
2022/01/25 04:19:00;;;;;;;;;;;1.80;99.90;;;;;;5094133;28;19957;-45
2022/01/25 04:26:47;;;;;;;;;;;1.40;99.90;;;;;;5093486;28;20249;-46
2022/01/25 04:29:12;;;;;;;;;;;1.50;99.90;;;;;;5093890;28;19916;-44
2022/01/25 04:31:38;;;;;;;;;;;1.50;99.90;;;;;;5093939;28;19915;-46
2022/01/25 04:50:10;;;;;;;;;;;1.60;99.90;;;;;;5093715;28;19961;-45
2022/01/25 04:52:50;;;;;;;;;;;1.50;99.90;;;;;;5093945;28;19908;-46
2022/01/25 04:55:30;;;;;;;;;;;1.60;99.90;;;;;;5093896;28;19915;-43
2022/01/25 04:58:03;;;;;;;;;;;1.50;99.90;;;;;;5094337;28;19943;-45
2022/01/25 05:00:29;;;;;;;;;;;1.50;99.90;;;;;;5093707;28;20324;-46
2022/01/25 05:03:18;;;;;;;;;;;1.20;99.90;;;;;;5097411;28;20377;-45
2022/01/25 05:08:33;;;;;;;;;;;1.30;99.90;;;;;;5101644;28;19927;-45
2022/01/25 05:11:06;;;;;;;;;;;1.40;99.90;;;;;;5106553;28;19953;-46
2022/01/25 05:16:26;;;;;;;;;;;1.30;99.90;;;;;;5094915;28;19965;-49
2022/01/25 05:19:01;;;;;;;;;;;1.10;99.90;;;;;;5111172;28;20262;-47
2022/01/25 05:24:10;;;;;;;;;;;1.20;99.90;;;;;;5098260;28;19934;-50
2022/01/25 05:26:36;;;;;;;;;;;1.30;99.90;;;;;;5109035;28;19916;-46
2022/01/25 05:29:01;;;;;;;;;;;1.40;99.90;;;;;;5105490;28;20286;-48
2022/01/25 05:31:27;;;;;;;;;;;1.50;99.90;;;;;;5107213;28;19919;-48
2022/01/25 05:33:52;;;;;;;;;;;1.30;99.90;;;;;;5096579;28;19915;-43
2022/01/25 05:36:18;;;;;;;;;;;1.50;99.90;;;;;;5106941;28;19980;-47
2022/01/25 05:38:45;;;;;;;;;;;1.50;99.90;;;;;;5110115;28;19920;-45
2022/01/25 05:41:12;;;;;;;;;;;1.40;99.90;;;;;;5110221;28;19958;-46
2022/01/25 05:46:32;;;;;;;;;;;1.50;99.90;;;;;;5108565;28;19973;-45
2022/01/25 05:48:58;;;;;;;;;;;1.30;99.90;;;;;;5099098;28;19923;-47
2022/01/25 05:51:23;;;;;;;;;;;1.10;99.90;;;;;;5115826;28;20269;-47
2022/01/25 05:53:49;;;;;;;;;;;1.00;99.90;;;;;;5115293;28;19912;-45
2022/01/25 05:56:16;;;;;;;;;;;0.90;99.90;;;;;;5116966;28;19912;-47
2022/01/25 05:58:42;;;;;;;;;;;0.90;99.90;;;;;;5117028;28;20081;-44
2022/01/25 06:01:07;;;;;;;;;;;0.70;99.90;;;;;;5116948;28;20018;-45
2022/01/25 06:03:33;;;;;;;;;;;0.70;99.90;;;;;;5116486;28;20342;-48
2022/01/25 06:05:58;;;;;;;;;;;0.70;99.90;;;;;;5116767;28;19912;-47
2022/01/25 06:08:24;;;;;;;;;;;0.80;99.90;;;;;;5116815;28;19964;-45
2022/01/25 06:10:49;;;;;;;;;;;0.80;99.90;;;;;;5116818;28;20014;-45
2022/01/25 06:13:15;;;;;;;;;;;0.80;99.90;;;;;;5116379;28;20002;-47
2022/01/25 06:15:40;;;;;;;;;;;0.60;99.90;;;;;;5116768;28;19915;-46
2022/01/25 06:18:06;;;;;;;;;;;0.60;99.90;;;;;;5116463;28;19953;-46
2022/01/25 06:20:33;;;;;;;;;;;0.70;99.90;;;;;;5116243;28;19912;-45
2022/01/25 06:22:59;;;;;;;;;;;0.80;99.90;;;;;;5116388;28;19999;-48
2022/01/25 06:25:24;;;;;;;;;;;0.80;99.90;;;;;;5116587;28;20376;-46
2022/01/25 06:27:50;;;;;;;;;;;0.90;99.90;;;;;;5098067;28;20458;-48
2022/01/25 06:30:17;;;;;;;;;;;0.70;99.90;;;;;;5115627;28;19936;-47
2022/01/25 06:32:44;;;;;;;;;;;0.70;99.90;;;;;;5115916;28;19961;-47
2022/01/25 06:35:10;;;;;;;;;;;0.60;99.90;;;;;;5115782;28;19908;-47
2022/01/25 06:37:36;;;;;;;;;;;0.60;99.90;;;;;;5097090;28;20365;-46
2022/01/25 06:40:02;;;;;;;;;;;0.40;99.90;;;;;;5115458;28;19912;-45
2022/01/25 06:42:30;;;;;;;;;;;0.50;99.90;;;;;;5116228;28;20254;-44
2022/01/25 06:45:00;;;;;;;;;;;0.50;99.90;;;;;;5115512;28;20359;-45
2022/01/25 06:47:25;;;;;;;;;;;0.60;99.90;;;;;;5115258;28;19952;-44
2022/01/25 06:49:51;;;;;;;;;;;0.60;99.90;;;;;;5115597;28;19911;-45
2022/01/25 06:52:16;;;;;;;;;;;0.60;99.90;;;;;;5115117;28;20346;-46
2022/01/25 06:54:42;;;;;;;;;;;0.70;99.90;;;;;;5096926;28;19912;-45
2022/01/25 06:57:08;;;;;;;;;;;0.30;99.90;;;;;;5115352;28;19908;-43
2022/01/25 06:59:33;;;;;;;;;;;0.20;99.90;;;;;;5115569;28;20262;-44
2022/01/25 07:01:59;;;;;;;;;;;0.30;99.90;;;;;;5096946;28;20016;-50
2022/01/25 07:04:24;;;;;;;;;;;0.40;99.90;;;;;;5115294;28;20289;-46
2022/01/25 07:06:50;;;;;;;;;;;0.50;99.90;;;;;;5115494;28;19961;-46
2022/01/25 07:09:16;;;;;;;;;;;0.60;99.90;;;;;;5115117;28;19907;-46
2022/01/25 07:11:41;;;;;;;;;;;0.80;99.90;;;;;;5115060;28;20082;-47
2022/01/25 07:14:07;;;;;;;;;;;1.00;99.90;;;;;;5115025;28;20336;-47
2022/01/25 07:16:32;;;;;;;;;;;1.20;99.90;;;;;;5114573;28;19908;-46
2022/01/25 07:18:58;;;;;;;;;;;1.10;99.90;;;;;;5114981;28;20033;-46
2022/01/25 07:21:23;;;;;;;;;;;0.70;99.90;;;;;;5114800;28;20287;-47
2022/01/25 07:23:49;;;;;;;;;;;1.00;99.90;;;;;;5114980;28;19919;-46
2022/01/25 07:26:15;;;;;;;;;;;1.10;99.90;;;;;;5114447;28;19966;-47
2022/01/25 07:28:40;;;;;;;;;;;1.20;99.90;;;;;;5114563;28;20006;-44
2022/01/25 07:31:06;;;;;;;;;;;1.30;99.90;;;;;;5114367;28;20283;-44
2022/01/25 07:33:32;;;;;;;;;;;1.40;99.90;;;;;;5115075;28;20297;-44
2022/01/25 07:35:57;;;;;;;;;;;1.50;99.90;;;;;;5096323;28;19907;-46
2022/01/25 07:38:23;;;;;;;;;;;1.60;99.90;;;;;;5114661;28;19907;-44
2022/01/25 07:40:48;;;;;;;;;;;1.60;99.90;;;;;;5114467;28;19912;-44
2022/01/25 07:43:14;;;;;;;;;;;1.60;99.90;;;;;;5114449;28;19915;-46
2022/01/25 07:45:41;;;;;;;;;;;1.50;99.90;;;;;;5114618;28;20380;-44
2022/01/25 07:48:08;;;;;;;;;;;1.20;99.90;;;;;;5114120;28;20285;-48
2022/01/25 07:50:34;;;;;;;;;;;1.00;99.90;;;;;;5113700;28;19908;-46
2022/01/25 07:52:59;;;;;;;;;;;1.00;99.90;;;;;;5095924;28;19912;-46
2022/01/25 07:55:25;;;;;;;;;;;1.20;99.90;;;;;;5114494;28;20239;-49
2022/01/25 07:57:50;;;;;;;;;;;1.40;99.90;;;;;;5114082;28;20369;-46
2022/01/25 08:00:16;;;;;;;;;;;1.40;99.90;;;;;;5113967;28;19908;-47
2022/01/25 08:02:42;;;;;;;;;;;1.50;99.90;;;;;;5113933;28;19911;-46
2022/01/25 08:05:07;;;;;;;;;;;1.70;99.90;;;;;;5113920;28;19926;-46
2022/01/25 08:07:33;;;;;;;;;;;1.90;99.90;;;;;;5114234;28;19908;-47
2022/01/25 08:09:58;;;;;;;;;;;1.90;99.90;;;;;;5114302;28;19908;-47
2022/01/25 08:12:25;;;;;;;;;;;1.70;99.90;;;;;;5114162;28;19918;-46
2022/01/25 08:14:51;;;;;;;;;;;1.90;99.90;;;;;;5113823;28;19998;-45
2022/01/25 08:17:17;;;;;;;;;;;2.00;99.90;;;;;;5113931;28;20278;-47
2022/01/25 08:19:44;;;;;;;;;;;2.00;99.90;;;;;;5114200;28;19926;-45
2022/01/25 08:22:10;;;;;;;;;;;2.00;99.90;;;;;;5114082;28;19982;-46
2022/01/25 08:24:35;;;;;;;;;;;1.90;99.90;;;;;;5095387;28;20289;-48
2022/01/25 08:27:01;;;;;;;;;;;1.80;99.90;;;;;;5114017;28;19908;-46
2022/01/25 08:29:27;;;;;;;;;;;1.90;99.90;;;;;;5114091;28;19908;-45
2022/01/25 08:31:52;;;;;;;;;;;1.90;99.90;;;;;;5114463;28;19911;-45
2022/01/25 08:34:18;;;;;;;;;;;2.20;99.90;;;;;;5113953;28;19908;-46
2022/01/25 08:36:44;;;;;;;;;;;2.30;99.90;;;;;;5113353;28;19922;-46
2022/01/25 08:39:09;;;;;;;;;;;2.10;99.90;;;;;;5113901;28;19934;-45
2022/01/25 08:41:35;;;;;;;;;;;2.10;99.90;;;;;;5113842;28;20346;-49
2022/01/25 08:44:00;;;;;;;;;;;2.10;99.90;;;;;;5113233;28;20344;-45
2022/01/25 08:46:26;;;;;;;;;;;2.10;99.90;;;;;;5113540;28;19923;-47
2022/01/25 08:48:52;;;;;;;;;;;1.90;99.90;;;;;;5113968;28;19911;-45
2022/01/25 08:51:17;;;;;;;;;;;1.80;99.90;;;;;;5113258;28;19911;-44
2022/01/25 08:53:43;;;;;;;;;;;1.80;99.90;;;;;;5095498;28;20006;-44
2022/01/25 08:56:09;;;;;;;;;;;1.80;99.90;;;;;;5113760;28;19912;-46
2022/01/25 08:58:35;;;;;;;;;;;1.70;99.90;;;;;;5113354;28;19908;-48
2022/01/25 09:01:00;;;;;;;;;;;1.80;99.90;;;;;;5095535;28;19915;-45
2022/01/25 09:03:26;;;;;;;;;;;1.80;99.90;;;;;;5117775;28;19908;-48
2022/01/25 09:05:51;;;;;;;;;;;1.90;99.90;;;;;;5117559;28;19926;-45
2022/01/25 09:08:22;;;;;;;;;;;1.80;99.90;;;;;;5117723;28;19919;-44
2022/01/25 09:10:51;;;;;;;;;;;1.90;99.90;;;;;;5117880;28;19908;-49
2022/01/25 09:13:17;;;;;;;;;;;2.10;99.90;;;;;;5117674;28;20266;-46
2022/01/25 09:15:43;;;;;;;;;;;2.30;99.90;;;;;;5117192;28;20024;-49
2022/01/25 09:18:08;;;;;;;;;;;2.80;99.90;;;;;;5117208;28;20458;-47
2022/01/25 09:20:34;;;;;;;;;;;3.00;99.90;;;;;;5117662;28;19907;-44
2022/01/25 09:22:59;;;;;;;;;;;3.20;99.90;;;;;;5117380;28;19908;-48
2022/01/25 09:25:25;;;;;;;;;;;3.10;99.90;;;;;;5117037;28;19920;-46
2022/01/25 09:27:50;;;;;;;;;;;3.30;99.90;;;;;;5117413;28;20385;-45
2022/01/25 09:30:16;;;;;;;;;;;3.30;99.90;;;;;;5116999;28;20291;-44
2022/01/25 09:32:42;;;;;;;;;;;3.20;99.90;;;;;;5116932;28;19912;-47
2022/01/25 09:35:07;;;;;;;;;;;3.40;99.90;;;;;;5116941;28;19908;-44
2022/01/25 09:37:33;;;;;;;;;;;3.40;99.90;;;;;;5117163;28;19991;-49
2022/01/25 09:39:59;;;;;;;;;;;3.40;99.90;;;;;;5116884;28;19908;-46
2022/01/25 09:42:28;;;;;;;;;;;3.60;99.90;;;;;;5116769;28;19912;-47
2022/01/25 09:44:54;;;;;;;;;;;3.80;99.90;;;;;;5116701;28;19916;-46
2022/01/25 09:47:19;;;;;;;;;;;3.90;99.90;;;;;;5116483;28;19908;-46
2022/01/25 09:49:45;;;;;;;;;;;3.90;99.90;;;;;;5116418;28;20040;-48
2022/01/25 09:52:11;;;;;;;;;;;4.30;99.90;;;;;;5116643;28;19908;-45
2022/01/25 09:54:36;;;;;;;;;;;4.40;99.90;;;;;;5097910;28;19968;-43
2022/01/25 09:57:03;;;;;;;;;;;4.50;99.90;;;;;;5116534;28;20361;-50
2022/01/25 09:59:29;;;;;;;;;;;4.80;99.90;;;;;;5116203;28;20261;-48
2022/01/25 10:01:55;;;;;;;;;;;4.80;99.90;;;;;;5116629;28;19992;-48
2022/01/25 10:04:24;;;;;;;;;;;4.70;99.90;;;;;;5116731;28;19915;-48
2022/01/25 10:06:50;;;;;;;;;;;4.70;99.90;;;;;;5116807;28;19915;-45
2022/01/25 10:09:16;;;;;;;;;;;4.40;99.90;;;;;;5116388;28;19907;-44
2022/01/25 10:11:41;;;;;;;;;;;3.90;99.90;;;;;;5097989;28;19908;-47
2022/01/25 10:14:07;;;;;;;;;;;3.70;99.90;;;;;;5115270;28;19908;-45
2022/01/25 10:16:34;;;;;;;;;;;3.50;99.90;;;;;;5115726;28;19923;-46
2022/01/25 10:19:05;;;;;;;;;;;3.70;99.90;;;;;;5116119;28;19988;-46
2022/01/25 10:21:31;;;;;;;;;;;3.70;99.90;;;;;;5116446;28;19908;-46
2022/01/25 10:24:00;;;;;;;;;;;3.60;99.90;;;;;;5115681;28;19919;-46
2022/01/25 10:26:26;;;;;;;;;;;3.60;99.90;;;;;;5115935;28;20380;-47
2022/01/25 10:28:51;;;;;;;;;;;3.80;99.90;;;;;;5115382;28;19908;-45
2022/01/25 10:31:17;;;;;;;;;;;4.20;99.90;;;;;;5115943;28;20472;-48
2022/01/25 10:33:51;;;;;;;;;;;4.60;99.90;;;;;;5115692;28;19908;-51
2022/01/25 10:36:19;;;;;;;;;;;5.00;99.90;;;;;;5116064;28;20021;-46
2022/01/25 10:38:46;;;;;;;;;;;5.50;99.90;;;;;;5097722;28;19962;-47
2022/01/25 10:41:14;;;;;;;;;;;4.90;99.90;;;;;;5115751;28;20373;-46
2022/01/25 10:43:41;;;;;;;;;;;4.80;99.90;;;;;;5115231;28;19907;-45
2022/01/25 10:46:06;;;;;;;;;;;5.00;99.90;;;;;;5115703;28;19916;-45
2022/01/25 10:48:32;;;;;;;;;;;5.00;99.90;;;;;;5115793;28;20376;-45
2022/01/25 10:51:08;;;;;;;;;;;5.00;99.90;;;;;;5115362;28;19980;-46
2022/01/25 10:53:34;;;;;;;;;;;5.30;99.90;;;;;;5115346;28;19955;-44
2022/01/25 10:56:00;;;;;;;;;;;5.30;99.90;;;;;;5097207;28;20034;-48
2022/01/25 10:58:26;;;;;;;;;;;5.20;99.90;;;;;;5115058;28;19908;-51
2022/01/25 11:00:51;;;;;;;;;;;5.40;99.90;;;;;;5115220;28;19961;-44
2022/01/25 11:03:35;;;;;;;;;;;5.80;99.90;;;;;;5115365;28;19912;-48
2022/01/25 11:06:09;;;;;;;;;;;5.90;99.90;;;;;;5115365;28;19916;-47
2022/01/25 11:08:36;;;;;;;;;;;6.20;99.90;;;;;;5115185;28;19907;-47
2022/01/25 11:11:03;;;;;;;;;;;6.10;99.90;;;;;;5114911;28;19914;-46
2022/01/25 11:15:55;;;;;;;;;;;6.50;99.90;;;;;;5114998;28;20274;-47
2022/01/25 11:18:21;;;;;;;;;;;6.80;99.90;;;;;;5114795;28;19935;-45
2022/01/25 11:20:47;;;;;;;;;;;6.90;99.90;;;;;;5114914;28;19931;-47
2022/01/25 11:23:12;;;;;;;;;;;7.10;99.90;;;;;;5096854;28;20282;-47
2022/01/25 11:25:39;;;;;;;;;;;7.10;99.90;;;;;;5113634;28;19931;-48
2022/01/25 11:28:05;;;;;;;;;;;7.40;99.90;;;;;;5114420;28;19907;-49
2022/01/25 11:30:31;;;;;;;;;;;7.20;99.90;;;;;;5114778;28;19915;-46
2022/01/25 11:32:56;;;;;;;;;;;7.10;99.90;;;;;;5114490;28;19919;-47
2022/01/25 11:35:24;;;;;;;;;;;7.20;99.90;;;;;;5114313;28;19919;-47
2022/01/25 11:37:50;;;;;;;;;;;7.30;99.90;;;;;;5114833;28;20262;-46
2022/01/25 11:40:25;;;;;;;;;;;7.30;99.90;;;;;;5114642;28;19922;-48
2022/01/25 11:42:53;;;;;;;;;;;7.20;99.90;;;;;;5114037;28;20032;-45
2022/01/25 11:45:21;;;;;;;;;;;6.80;99.90;;;;;;5114598;28;19998;-45
2022/01/25 11:47:50;;;;;;;;;;;6.90;99.90;;;;;;5096051;28;19908;-46
2022/01/25 11:50:16;;;;;;;;;;;7.10;99.90;;;;;;5114249;28;19908;-48
2022/01/25 11:52:49;;;;;;;;;;;7.40;99.90;;;;;;5114426;28;20034;-46
2022/01/25 11:55:22;;;;;;;;;;;7.60;99.90;;;;;;5113773;28;19947;-48
2022/01/25 11:57:55;;;;;;;;;;;7.50;99.90;;;;;;5113834;28;19915;-48
2022/01/25 12:00:22;;;;;;;;;;;7.30;99.90;;;;;;5114151;28;19953;-46
2022/01/25 12:02:53;;;;;;;;;;;7.20;99.90;;;;;;5114248;28;19954;-48
2022/01/25 12:05:26;;;;;;;;;;;7.10;99.90;;;;;;5113937;28;19916;-46
2022/01/25 12:08:10;;;;;;;;;;;7.10;99.90;;;;;;5114015;28;19946;-45
2022/01/25 12:10:38;;;;;;;;;;;7.10;99.90;;;;;;5114193;28;19935;-45
2022/01/25 12:13:21;;;;;;;;;;;7.10;99.90;;;;;;5114329;28;19947;-46
2022/01/25 12:16:07;;;;;;;;;;;6.90;99.90;;;;;;5114229;28;19923;-45
2022/01/25 12:18:51;;;;;;;;;;;6.90;99.90;;;;;;5113572;28;20361;-48
2022/01/25 12:21:37;;;;;;;;;;;7.00;99.90;;;;;;5113950;28;19908;-46
2022/01/25 12:24:23;;;;;;;;;;;7.30;99.90;;;;;;5113558;28;19994;-45
2022/01/25 12:27:27;;;;;;;;;;;7.00;99.90;;;;;;5113726;28;19969;-45
2022/01/25 12:30:01;;;;;;;;;;;7.20;99.90;;;;;;5113523;28;19991;-46
2022/01/25 12:32:29;;;;;;;;;;;6.90;99.90;;;;;;5113553;28;19912;-48
2022/01/25 12:35:03;;;;;;;;;;;6.90;99.90;;;;;;5113666;28;19907;-45
2022/01/25 12:37:44;;;;;;;;;;;7.00;99.90;;;;;;5113429;28;19907;-45
2022/01/25 12:40:25;;;;;;;;;;;6.70;99.90;;;;;;5113551;28;19994;-44
2022/01/25 12:43:02;;;;;;;;;;;6.40;99.90;;;;;;5113617;28;19908;-47
2022/01/25 12:45:30;;;;;;;;;;;6.40;99.90;;;;;;5113343;28;20242;-46
2022/01/25 12:47:59;;;;;;;;;;;6.50;99.90;;;;;;5113529;28;19912;-45
2022/01/25 12:50:26;;;;;;;;;;;6.60;99.90;;;;;;5114179;28;19999;-48
2022/01/25 12:52:51;;;;;;;;;;;6.70;99.90;;;;;;5113332;28;19908;-44
2022/01/25 12:55:22;;;;;;;;;;;7.00;99.90;;;;;;5113398;28;19919;-44
2022/01/25 12:57:48;;;;;;;;;;;6.90;99.90;;;;;;5113551;28;19908;-47
2022/01/25 13:00:14;;;;;;;;;;;6.90;99.90;;;;;;5113207;28;20380;-45
2022/01/25 13:02:40;;;;;;;;;;;6.90;99.90;;;;;;5113557;28;20018;-48
2022/01/25 13:05:16;;;;;;;;;;;6.80;99.90;;;;;;5113387;28;20007;-45
2022/01/25 13:07:42;;;;;;;;;;;6.70;99.90;;;;;;5113408;28;20330;-47
2022/01/25 13:10:10;;;;;;;;;;;6.50;99.90;;;;;;5090842;28;19950;-48
2022/01/25 13:12:47;;;;;;;;;;;6.40;99.90;;;;;;5093790;28;19915;-48
2022/01/25 13:15:38;;;;;;;;;;;6.40;99.90;;;;;;5092411;28;19912;-45
2022/01/25 13:18:10;;;;;;;;;;;6.60;99.90;;;;;;5092799;28;19958;-47
2022/01/25 13:20:37;;;;;;;;;;;6.70;99.90;;;;;;5093930;28;20032;-48
2022/01/25 13:23:02;;;;;;;;;;;6.80;99.90;;;;;;5101992;28;19922;-45
2022/01/25 13:25:44;;;;;;;;;;;6.80;99.90;;;;;;5096507;28;19920;-46
2022/01/25 13:28:14;;;;;;;;;;;6.90;99.90;;;;;;5093922;28;19919;-45
2022/01/25 13:33:05;;;;;;;;;;;6.70;99.90;;;;;;5095064;28;19912;-46
2022/01/25 13:35:34;;;;;;;;;;;6.60;99.90;;;;;;5104595;28;19912;-46
2022/01/25 13:38:00;;;;;;;;;;;6.70;99.90;;;;;;5097111;28;19911;-49
2022/01/25 13:40:33;;;;;;;;;;;6.90;99.90;;;;;;5113182;28;19915;-47
2022/01/25 13:43:19;;;;;;;;;;;6.70;99.90;;;;;;5101902;28;19912;-47
2022/01/25 13:45:51;;;;;;;;;;;6.80;99.90;;;;;;5092394;28;19916;-45
2022/01/25 13:48:19;;;;;;;;;;;6.80;99.90;;;;;;5091250;28;19912;-46
2022/01/25 13:50:45;;;;;;;;;;;6.70;99.90;;;;;;5094210;28;19915;-46
2022/01/25 13:53:11;;;;;;;;;;;6.60;99.90;;;;;;5094628;28;19987;-45
2022/01/25 13:55:37;;;;;;;;;;;6.70;99.90;;;;;;5094242;28;19915;-47
2022/01/25 13:58:17;;;;;;;;;;;6.60;99.90;;;;;;5094779;28;19973;-47
2022/01/25 14:00:43;;;;;;;;;;;6.70;99.90;;;;;;5094958;28;19919;-44
2022/01/25 14:03:08;;;;;;;;;;;6.60;99.90;;;;;;5095562;28;19908;-45
2022/01/25 14:05:37;;;;;;;;;;;6.50;99.90;;;;;;5095586;28;20389;-46
2022/01/25 14:08:02;;;;;;;;;;;6.40;99.90;;;;;;5095501;28;19966;-46
2022/01/25 14:10:29;;;;;;;;;;;6.40;99.90;;;;;;5096021;28;20299;-45
2022/01/25 14:23:54;;;;;;;;;;;6.00;99.90;;;;;;5116153;28;19970;-49
2022/01/25 14:26:20;;;;;;;;;;;5.90;99.90;;;;;;5115946;28;20212;-49
2022/01/25 14:28:54;;;;;;;;;;;5.90;99.90;;;;;;5113962;28;19918;-45
2022/01/25 14:31:21;;;;;;;;;;;5.80;99.90;;;;;;5116256;28;19908;-47
2022/01/25 14:33:50;;;;;;;;;;;5.70;99.90;;;;;;5102579;28;20386;-48
2022/01/25 14:36:16;;;;;;;;;;;5.70;99.90;;;;;;5095529;28;19962;-45
2022/01/25 14:38:43;;;;;;;;;;;5.70;99.90;;;;;;5095486;28;20279;-45
2022/01/25 14:41:16;;;;;;;;;;;5.70;99.90;;;;;;5095383;28;19908;-45
2022/01/25 14:43:53;;;;;;;;;;;5.70;99.90;;;;;;5096823;28;20010;-47
2022/01/25 14:46:25;;;;;;;;;;;5.80;99.90;;;;;;5101556;28;20010;-45
2022/01/25 14:49:16;;;;;;;;;;;5.90;99.90;;;;;;5078962;28;19908;-44
2022/01/25 14:51:43;;;;;;;;;;;5.80;99.90;;;;;;5095569;28;19912;-46
2022/01/25 14:54:10;;;;;;;;;;;5.50;99.90;;;;;;5114422;28;20003;-47
2022/01/25 14:56:38;;;;;;;;;;;5.40;99.90;;;;;;5114656;28;19907;-49
2022/01/25 14:59:24;;;;;;;;;;;5.30;99.90;;;;;;5096642;28;19908;-45
2022/01/25 15:01:54;;;;;;;;;;;5.30;99.90;;;;;;5115595;28;19961;-48
2022/01/25 15:04:20;;;;;;;;;;;5.40;99.90;;;;;;5114555;28;19919;-47
2022/01/25 15:06:45;;;;;;;;;;;5.50;99.90;;;;;;5095479;28;19915;-45
2022/01/25 15:09:12;;;;;;;;;;;5.40;99.90;;;;;;5115059;28;19907;-46
2022/01/25 15:11:38;;;;;;;;;;;5.30;99.90;;;;;;5114697;28;19908;-48
2022/01/25 15:14:17;;;;;;;;;;;5.20;99.90;;;;;;5115170;28;20377;-45
2022/01/25 15:16:43;;;;;;;;;;;5.20;99.90;;;;;;5114509;28;19908;-46
2022/01/25 15:19:08;;;;;;;;;;;5.10;99.90;;;;;;5114655;28;19907;-46
2022/01/25 15:21:34;;;;;;;;;;;5.40;99.90;;;;;;5114766;28;19919;-48
2022/01/25 15:24:00;;;;;;;;;;;5.90;99.90;;;;;;5113958;28;19920;-44
2022/01/25 15:26:28;;;;;;;;;;;6.10;99.90;;;;;;5114375;28;19919;-46
2022/01/25 15:28:57;;;;;;;;;;;5.70;99.90;;;;;;5114809;28;19996;-45
2022/01/25 15:31:23;;;;;;;;;;;5.40;99.90;;;;;;5114824;28;19912;-45
2022/01/25 15:33:49;;;;;;;;;;;5.10;99.90;;;;;;5114867;28;19908;-48
2022/01/25 15:36:16;;;;;;;;;;;4.80;99.90;;;;;;5114569;28;20043;-44
2022/01/25 15:38:43;;;;;;;;;;;4.70;99.90;;;;;;5114324;28;19918;-47
2022/01/25 15:41:10;;;;;;;;;;;4.50;99.90;;;;;;5113975;28;19908;-45
2022/01/25 15:43:45;;;;;;;;;;;4.30;99.90;;;;;;5114649;28;19908;-44
2022/01/25 15:46:22;;;;;;;;;;;4.30;99.90;;;;;;5114411;28;19942;-47
2022/01/25 15:48:47;;;;;;;;;;;4.00;99.90;;;;;;5092087;28;19912;-50
2022/01/25 15:51:13;;;;;;;;;;;3.90;99.90;;;;;;5098068;28;20200;-48
2022/01/25 15:53:38;;;;;;;;;;;3.70;99.90;;;;;;5082167;28;19966;-47
2022/01/25 15:56:04;;;;;;;;;;;3.60;99.90;;;;;;5097026;28;20004;-46
2022/01/25 15:58:30;;;;;;;;;;;3.50;99.90;;;;;;5093791;28;19912;-46
2022/01/25 16:00:55;;;;;;;;;;;3.30;99.90;;;;;;5100811;28;19908;-45
2022/01/25 16:03:21;;;;;;;;;;;3.20;99.90;;;;;;5113768;28;20014;-47
2022/01/25 16:05:47;;;;;;;;;;;3.10;99.90;;;;;;5113679;28;19922;-47
2022/01/25 16:08:16;;;;;;;;;;;3.00;99.90;;;;;;5114380;28;20335;-48
2022/01/25 16:10:44;;;;;;;;;;;2.90;99.90;;;;;;5113730;28;19907;-44
2022/01/25 16:13:09;;;;;;;;;;;2.70;99.90;;;;;;5105550;28;19939;-49
2022/01/25 16:15:35;;;;;;;;;;;2.60;99.90;;;;;;5093527;28;20000;-50
2022/01/25 16:18:00;;;;;;;;;;;2.50;99.90;;;;;;5097160;28;19912;-50
2022/01/25 16:20:27;;;;;;;;;;;2.40;99.90;;;;;;5104366;28;20308;-46
2022/01/25 16:22:54;;;;;;;;;;;2.20;99.90;;;;;;5114009;28;19908;-48
2022/01/25 16:25:20;;;;;;;;;;;2.10;99.90;;;;;;5095867;28;19927;-46
2022/01/25 16:27:45;;;;;;;;;;;2.00;99.90;;;;;;5102362;28;19949;-44
2022/01/25 16:30:11;;;;;;;;;;;1.80;99.90;;;;;;5075613;28;20259;-45
2022/01/25 16:32:42;;;;;;;;;;;1.70;99.90;;;;;;5099215;28;19934;-47
2022/01/25 16:35:08;;;;;;;;;;;1.70;99.90;;;;;;5094120;28;19912;-49
2022/01/25 16:37:34;;;;;;;;;;;1.70;99.90;;;;;;5099893;28;20215;-46
2022/01/25 16:39:59;;;;;;;;;;;1.60;99.90;;;;;;5102894;28;19912;-48
2022/01/25 16:42:25;;;;;;;;;;;1.50;99.90;;;;;;5104903;28;19912;-50
2022/01/25 16:44:57;;;;;;;;;;;1.40;99.90;;;;;;5109568;28;19926;-46
2022/01/25 16:47:23;;;;;;;;;;;1.20;99.90;;;;;;5096654;28;20346;-47
2022/01/25 16:49:48;;;;;;;;;;;0.90;99.90;;;;;;5101975;28;19911;-49